Time,TemperatureF,DewpointF,PressureIn,WindDirection,WindDirectionDegrees,WindSpeedMPH,WindSpeedGustMPH,Humidity,HourlyPrecipIn,Conditions,Clouds,dailyrainin,SoftwareType,DateUTC
2013-08-09 00:10:00,72.1,71.5,29.51,SW,225,0.0,-999.0,98,-99.99,,,0.00,Acu-Link.com,2013-08-09 04:10:00,
2013-08-09 00:25:00,72.1,71.5,29.52,WSW,247,0.0,-999.0,98,-99.99,,,0.00,Acu-Link.com,2013-08-09 04:25:00,
2013-08-09 00:40:00,72.1,71.5,29.51,West,270,0.0,-999.0,98,-99.99,,,0.00,Acu-Link.com,2013-08-09 04:40:00,
2013-08-09 00:55:00,72.0,71.4,29.51,SW,225,0.0,-999.0,98,-99.99,,,0.00,Acu-Link.com,2013-08-09 04:55:00,
2013-08-09 01:11:00,72.0,71.4,29.51,South,180,0.0,-999.0,98,-99.99,,,0.00,Acu-Link.com,2013-08-09 05:11:00,
2013-08-09 01:26:00,72.0,71.4,29.50,WSW,247,0.0,-999.0,98,-99.99,,,0.00,Acu-Link.com,2013-08-09 05:26:00,
2013-08-09 01:41:00,72.0,71.4,29.50,SW,225,0.0,-999.0,98,-99.99,,,0.00,Acu-Link.com,2013-08-09 05:41:00,
2013-08-09 01:57:00,72.0,71.4,29.50,South,180,0.0,-999.0,98,-99.99,,,0.00,Acu-Link.com,2013-08-09 05:57:00,
2013-08-09 02:12:00,72.0,71.4,29.49,South,180,0.0,-999.0,98,-99.99,,,0.00,Acu-Link.com,2013-08-09 06:12:00,
2013-08-09 02:27:00,72.0,71.4,29.49,SW,225,0.0,-999.0,98,-99.99,,,0.00,Acu-Link.com,2013-08-09 06:27:00,
2013-08-09 02:43:00,71.8,71.2,29.50,SW,225,0.0,-999.0,98,-99.99,,,0.00,Acu-Link.com,2013-08-09 06:43:00,
2013-08-09 02:58:00,71.8,71.2,29.50,SSW,202,0.0,-999.0,98,-99.99,,,0.00,Acu-Link.com,2013-08-09 06:58:00,
2013-08-09 03:13:00,71.8,71.2,29.50,SW,225,0.0,-999.0,98,-99.99,,,0.00,Acu-Link.com,2013-08-09 07:13:00,
2013-08-09 03:28:00,71.8,71.2,29.51,West,270,0.0,-999.0,98,-99.99,,,0.01,Acu-Link.com,2013-08-09 07:28:00,
2013-08-09 03:44:00,71.8,71.2,29.51,NNE,22,0.0,-999.0,98,-99.99,,,0.04,Acu-Link.com,2013-08-09 07:44:00,
2013-08-09 03:59:00,72.0,71.4,29.48,South,180,0.0,-999.0,98,-99.99,,,0.06,Acu-Link.com,2013-08-09 07:59:00,
2013-08-09 04:15:00,72.0,71.4,29.48,NNE,22,0.0,-999.0,98,-99.99,,,0.08,Acu-Link.com,2013-08-09 08:15:00,
2013-08-09 04:30:00,72.0,71.4,29.48,North,0,0.0,-999.0,98,-99.99,,,0.08,Acu-Link.com,2013-08-09 08:30:00,
2013-08-09 04:45:00,72.0,71.4,29.48,WNW,292,0.0,-999.0,98,-99.99,,,0.09,Acu-Link.com,2013-08-09 08:45:00,
2013-08-09 05:00:00,72.0,71.4,29.49,NNE,22,0.0,-999.0,98,-99.99,,,0.09,Acu-Link.com,2013-08-09 09:00:00,
2013-08-09 05:15:00,71.8,71.2,29.49,NNW,337,0.0,-999.0,98,-99.99,,,0.09,Acu-Link.com,2013-08-09 09:15:00,
2013-08-09 05:30:00,71.8,71.2,29.48,NNW,337,0.0,-999.0,98,-99.99,,,0.09,Acu-Link.com,2013-08-09 09:30:00,
2013-08-09 05:45:00,71.6,71.0,29.49,West,270,0.0,-999.0,98,-99.99,,,0.09,Acu-Link.com,2013-08-09 09:45:00,
2013-08-09 06:01:00,71.4,70.8,29.50,West,270,1.6,-999.0,98,-99.99,,,0.09,Acu-Link.com,2013-08-09 10:01:00,
2013-08-09 06:16:00,71.2,70.6,29.49,SW,225,0.0,-999.0,98,-99.99,,,0.09,Acu-Link.com,2013-08-09 10:16:00,
2013-08-09 06:31:00,71.2,70.6,29.50,West,270,0.0,-999.0,98,-99.99,,,0.09,Acu-Link.com,2013-08-09 10:31:00,
2013-08-09 06:46:00,71.1,70.5,29.50,WSW,247,0.0,-999.0,98,-99.99,,,0.09,Acu-Link.com,2013-08-09 10:46:00,
2013-08-09 07:02:00,71.2,70.6,29.50,SW,225,0.0,-999.0,98,-99.99,,,0.09,Acu-Link.com,2013-08-09 11:02:00,
2013-08-09 07:17:00,71.2,70.6,29.51,WNW,292,0.0,-999.0,98,-99.99,,,0.09,Acu-Link.com,2013-08-09 11:17:00,
2013-08-09 07:32:00,71.4,70.8,29.50,South,180,0.0,-999.0,98,-99.99,,,0.09,Acu-Link.com,2013-08-09 11:32:00,
2013-08-09 07:48:00,71.6,71.0,29.50,South,180,0.0,-999.0,98,-99.99,,,0.09,Acu-Link.com,2013-08-09 11:48:00,
2013-08-09 08:03:00,71.6,71.0,29.52,ENE,67,0.0,-999.0,98,-99.99,,,0.11,Acu-Link.com,2013-08-09 12:03:00,
2013-08-09 08:18:00,71.8,71.2,29.52,West,270,1.1,-999.0,98,-99.99,,,0.11,Acu-Link.com,2013-08-09 12:18:00,
2013-08-09 08:34:00,71.8,71.2,29.52,South,180,0.0,-999.0,98,-99.99,,,0.11,Acu-Link.com,2013-08-09 12:34:00,
2013-08-09 08:49:00,71.6,71.0,29.52,West,270,1.6,-999.0,98,-99.99,,,0.11,Acu-Link.com,2013-08-09 12:49:00,
2013-08-09 09:04:00,71.4,70.8,29.52,South,180,0.0,-999.0,98,-99.99,,,0.11,Acu-Link.com,2013-08-09 13:04:00,
2013-08-09 09:19:00,71.6,71.0,29.53,South,180,0.0,-999.0,98,-99.99,,,0.11,Acu-Link.com,2013-08-09 13:19:00,
2013-08-09 09:35:00,72.0,71.4,29.53,NE,45,0.0,-999.0,98,-99.99,,,0.11,Acu-Link.com,2013-08-09 13:35:00,
2013-08-09 09:50:00,72.1,71.5,29.53,South,180,1.6,-999.0,98,-99.99,,,0.11,Acu-Link.com,2013-08-09 13:50:00,
2013-08-09 10:05:00,72.3,71.7,29.53,ESE,112,1.6,-999.0,98,-99.99,,,0.11,Acu-Link.com,2013-08-09 14:05:00,
2013-08-09 10:20:00,72.9,72.3,29.53,SE,135,2.2,-999.0,98,-99.99,,,0.11,Acu-Link.com,2013-08-09 14:20:00,
2013-08-09 10:36:00,74.1,73.5,29.53,West,270,4.3,-999.0,98,-99.99,,,0.11,Acu-Link.com,2013-08-09 14:36:00,
2013-08-09 10:51:00,74.8,74.2,29.53,NNE,22,0.0,-999.0,98,-99.99,,,0.11,Acu-Link.com,2013-08-09 14:51:00,
2013-08-09 11:06:00,73.8,73.2,29.54,West,270,0.0,-999.0,98,-99.99,,,0.11,Acu-Link.com,2013-08-09 15:06:00,
2013-08-09 11:22:00,73.0,72.4,29.54,NW,315,1.6,-999.0,98,-99.99,,,0.11,Acu-Link.com,2013-08-09 15:22:00,
2013-08-09 11:37:00,70.2,69.6,29.55,NNW,337,2.2,-999.0,98,-99.99,,,0.11,Acu-Link.com,2013-08-09 15:37:00,
2013-08-09 11:52:00,68.9,68.3,29.56,NW,315,2.2,-999.0,98,-99.99,,,0.18,Acu-Link.com,2013-08-09 15:52:00,
2013-08-09 12:07:00,68.7,68.1,29.56,West,270,0.0,-999.0,98,-99.99,,,0.24,Acu-Link.com,2013-08-09 16:07:00,
2013-08-09 12:23:00,69.1,68.5,29.56,West,270,0.0,-999.0,98,-99.99,,,0.24,Acu-Link.com,2013-08-09 16:23:00,
2013-08-09 12:38:00,68.5,68.0,29.56,WNW,292,0.0,-999.0,98,-99.99,,,0.37,Acu-Link.com,2013-08-09 16:38:00,
2013-08-09 12:53:00,69.1,68.5,29.56,West,270,0.0,-999.0,98,-99.99,,,0.39,Acu-Link.com,2013-08-09 16:53:00,
2013-08-09 13:08:00,71.1,70.5,29.56,NNE,22,0.0,-999.0,98,-99.99,,,0.40,Acu-Link.com,2013-08-09 17:08:00,
2013-08-09 13:24:00,70.0,69.4,29.56,WNW,292,0.0,-999.0,98,-99.99,,,0.40,Acu-Link.com,2013-08-09 17:24:00,
2013-08-09 13:39:00,72.5,71.9,29.55,SSE,157,3.8,-999.0,98,-99.99,,,0.40,Acu-Link.com,2013-08-09 17:39:00,
2013-08-09 13:54:00,70.9,70.3,29.55,WSW,247,2.2,-999.0,98,-99.99,,,0.40,Acu-Link.com,2013-08-09 17:54:00,
2013-08-09 14:09:00,71.1,70.5,29.56,NW,315,0.0,-999.0,98,-99.99,,,0.40,Acu-Link.com,2013-08-09 18:09:00,
2013-08-09 14:25:00,72.0,71.4,29.56,NNW,337,0.0,-999.0,98,-99.99,,,0.40,Acu-Link.com,2013-08-09 18:25:00,
2013-08-09 14:40:00,73.2,72.6,29.56,South,180,0.0,-999.0,98,-99.99,,,0.40,Acu-Link.com,2013-08-09 18:40:00,
2013-08-09 14:55:00,73.8,73.2,29.56,West,270,2.7,-999.0,98,-99.99,,,0.40,Acu-Link.com,2013-08-09 18:55:00,
2013-08-09 15:11:00,75.2,74.6,29.56,South,180,4.7,-999.0,98,-99.99,,,0.40,Acu-Link.com,2013-08-09 19:11:00,
2013-08-09 15:26:00,75.9,75.3,29.55,NE,45,1.6,-999.0,98,-99.99,,,0.40,Acu-Link.com,2013-08-09 19:26:00,
2013-08-09 15:41:00,76.8,76.2,29.55,NE,45,1.6,-999.0,98,-99.99,,,0.40,Acu-Link.com,2013-08-09 19:41:00,
2013-08-09 15:56:00,77.0,76.4,29.55,South,180,1.6,-999.0,98,-99.99,,,0.40,Acu-Link.com,2013-08-09 19:56:00,
2013-08-09 16:12:00,77.7,75.5,29.55,NW,315,1.1,-999.0,93,-99.99,,,0.40,Acu-Link.com,2013-08-09 20:12:00,
2013-08-09 16:27:00,78.8,77.2,29.55,NW,315,2.7,-999.0,95,-99.99,,,0.40,Acu-Link.com,2013-08-09 20:27:00,
2013-08-09 16:42:00,79.5,78.3,29.55,NW,315,1.1,-999.0,96,-99.99,,,0.40,Acu-Link.com,2013-08-09 20:42:00,
2013-08-09 16:57:00,79.7,77.8,29.55,WNW,292,2.2,-999.0,94,-99.99,,,0.40,Acu-Link.com,2013-08-09 20:57:00,
2013-08-09 17:12:00,79.0,78.1,29.55,NNE,22,2.7,-999.0,97,-99.99,,,0.40,Acu-Link.com,2013-08-09 21:12:00,
2013-08-09 17:28:00,77.7,77.1,29.55,WNW,292,0.0,-999.0,98,-99.99,,,0.40,Acu-Link.com,2013-08-09 21:28:00,
2013-08-09 17:43:00,80.4,76.5,29.56,South,180,0.0,-999.0,88,-99.99,,,0.40,Acu-Link.com,2013-08-09 21:43:00,
2013-08-09 17:58:00,79.5,76.0,29.56,SW,225,0.0,-999.0,89,-99.99,,,0.40,Acu-Link.com,2013-08-09 21:58:00,
2013-08-09 18:13:00,81.1,76.5,29.55,West,270,2.2,-999.0,86,-99.99,,,0.40,Acu-Link.com,2013-08-09 22:13:00,
2013-08-09 18:29:00,88.0,77.4,29.55,South,180,0.0,-999.0,71,-99.99,,,0.40,Acu-Link.com,2013-08-09 22:29:00,
2013-08-09 18:44:00,85.1,74.2,29.55,North,0,0.0,-999.0,70,-99.99,,,0.40,Acu-Link.com,2013-08-09 22:44:00,
2013-08-09 18:59:00,85.8,74.9,29.55,South,180,0.0,-999.0,70,-99.99,,,0.40,Acu-Link.com,2013-08-09 22:59:00,
2013-08-09 19:15:00,86.7,74.4,29.56,NNW,337,0.0,-999.0,67,-99.99,,,0.40,Acu-Link.com,2013-08-09 23:15:00,
2013-08-09 19:30:00,84.0,74.8,29.57,WSW,247,0.0,-999.0,74,-99.99,,,0.40,Acu-Link.com,2013-08-09 23:30:00,
2013-08-09 19:45:00,79.7,75.5,29.57,South,180,0.0,-999.0,87,-99.99,,,0.40,Acu-Link.com,2013-08-09 23:45:00,
2013-08-09 20:00:00,76.5,75.5,29.57,South,180,0.0,-999.0,97,-99.99,,,0.40,Acu-Link.com,2013-08-10 00:00:00,
2013-08-09 20:15:00,74.5,73.9,29.57,South,180,0.0,-999.0,98,-99.99,,,0.40,Acu-Link.com,2013-08-10 00:15:00,
2013-08-09 20:31:00,72.9,72.3,29.58,South,180,0.0,-999.0,98,-99.99,,,0.40,Acu-Link.com,2013-08-10 00:31:00,
2013-08-09 20:46:00,70.7,70.1,29.58,South,180,0.0,-999.0,98,-99.99,,,0.40,Acu-Link.com,2013-08-10 00:46:00,
2013-08-09 21:01:00,69.3,68.7,29.58,South,180,0.0,-999.0,98,-99.99,,,0.40,Acu-Link.com,2013-08-10 01:01:00,
2013-08-09 21:17:00,67.8,67.2,29.59,South,180,0.0,-999.0,98,-99.99,,,0.40,Acu-Link.com,2013-08-10 01:17:00,
2013-08-09 21:32:00,66.9,66.3,29.59,South,180,0.0,-999.0,98,-99.99,,,0.40,Acu-Link.com,2013-08-10 01:32:00,
2013-08-09 21:47:00,66.0,65.4,29.60,South,180,0.0,-999.0,98,-99.99,,,0.40,Acu-Link.com,2013-08-10 01:47:00,
2013-08-09 22:03:00,65.7,65.1,29.61,South,180,0.0,-999.0,98,-99.99,,,0.40,Acu-Link.com,2013-08-10 02:03:00,
2013-08-09 22:18:00,65.3,64.7,29.61,South,180,0.0,-999.0,98,-99.99,,,0.40,Acu-Link.com,2013-08-10 02:18:00,
2013-08-09 22:33:00,65.1,64.5,29.61,South,180,0.0,-999.0,98,-99.99,,,0.40,Acu-Link.com,2013-08-10 02:33:00,
2013-08-09 22:48:00,64.9,64.4,29.61,South,180,0.0,-999.0,98,-99.99,,,0.40,Acu-Link.com,2013-08-10 02:48:00,
2013-08-09 23:03:00,64.8,64.2,29.61,South,180,0.0,-999.0,98,-99.99,,,0.40,Acu-Link.com,2013-08-10 03:03:00,
2013-08-09 23:19:00,64.4,63.8,29.62,South,180,0.0,-999.0,98,-99.99,,,0.40,Acu-Link.com,2013-08-10 03:19:00,
2013-08-09 23:34:00,64.0,63.5,29.62,South,180,0.0,-999.0,98,-99.99,,,0.40,Acu-Link.com,2013-08-10 03:34:00,
2013-08-09 23:49:00,64.0,63.5,29.62,South,180,0.0,-999.0,98,-99.99,,,0.40,Acu-Link.com,2013-08-10 03:49:00,